createdAt,value
2018-03-20T00:01:00.449Z,7.37
2018-03-20T00:03:29.710Z,5.30
2018-03-20T00:06:07.353Z,6.20
2018-03-20T00:08:36.946Z,4.93
2018-03-20T00:11:06.373Z,5.60
2018-03-20T00:13:35.897Z,7.30
2018-03-20T00:16:10.076Z,6.90
2018-03-20T00:18:39.835Z,6.00
2018-03-20T00:21:13.124Z,5.90
2018-03-20T00:23:43.086Z,9.27
2018-03-20T00:26:15.932Z,5.10
2018-03-20T00:28:45.578Z,6.90
2018-03-20T00:31:22.648Z,4.27
2018-03-20T00:33:52.225Z,6.67
2018-03-20T00:36:21.931Z,3.93
2018-03-20T00:38:53.836Z,6.17
2018-03-20T00:41:23.380Z,8.33
2018-03-20T00:43:53.764Z,6.37
2018-03-20T00:46:24.232Z,8.07
2018-03-20T00:48:53.810Z,6.50
2018-03-20T00:51:26.995Z,7.17
2018-03-20T00:53:56.934Z,6.03
2018-03-20T00:56:28.559Z,6.73
2018-03-20T00:58:58.278Z,6.63
2018-03-20T01:01:30.926Z,7.27
2018-03-20T01:04:00.651Z,7.20
2018-03-20T01:06:34.291Z,5.50
2018-03-20T01:09:06.137Z,7.13
2018-03-20T01:11:36.688Z,8.10
2018-03-20T01:14:06.974Z,9.97
2018-03-20T01:16:39.011Z,6.20
2018-03-20T01:19:08.888Z,4.80
2018-03-20T01:21:41.190Z,5.80
2018-03-20T01:24:11.121Z,4.57
2018-03-20T01:26:44.130Z,11.20
2018-03-20T01:29:14.448Z,6.53
2018-03-20T01:31:47.745Z,7.67
2018-03-20T01:34:18.225Z,6.77
2018-03-20T01:36:49.681Z,7.30
2018-03-20T01:39:19.938Z,8.57
2018-03-20T01:41:53.251Z,7.13
2018-03-20T01:44:23.703Z,5.87
2018-03-20T01:46:57.097Z,6.37
2018-03-20T01:49:26.932Z,6.97
2018-03-20T01:51:59.452Z,5.07
2018-03-20T01:54:30.406Z,5.50
2018-03-20T01:57:01.675Z,6.13
2018-03-20T01:59:31.534Z,6.57
2018-03-20T02:02:05.193Z,7.13
2018-03-20T02:04:35.303Z,7.73
2018-03-20T02:07:08.256Z,5.80
2018-03-20T02:09:38.819Z,6.87
2018-03-20T02:12:10.958Z,5.77
2018-03-20T02:14:42.035Z,5.73
2018-03-20T02:17:15.373Z,7.10
2018-03-20T02:19:45.375Z,9.70
2018-03-20T02:22:16.849Z,5.23
2018-03-20T02:24:47.409Z,5.87
2018-03-20T02:27:19.047Z,6.60
2018-03-20T02:29:50.202Z,6.37
2018-03-20T02:32:20.987Z,6.57
2018-03-20T02:34:51.071Z,5.27
2018-03-20T02:37:24.762Z,6.07
2018-03-20T02:39:55.329Z,7.67
2018-03-20T02:42:25.611Z,8.17
2018-03-20T02:44:55.423Z,8.97
2018-03-20T02:47:27.665Z,9.17
2018-03-20T02:49:58.554Z,8.03
2018-03-20T02:52:29.369Z,6.43
2018-03-20T02:55:01.724Z,5.23
2018-03-20T02:57:32.488Z,4.60
2018-03-20T03:00:02.486Z,4.73
2018-03-20T03:02:35.538Z,6.17
2018-03-20T03:05:06.305Z,7.90
2018-03-20T03:07:37.946Z,6.07
2018-03-20T03:10:09.388Z,4.33
2018-03-20T03:12:40.992Z,6.27
2018-03-20T03:15:11.390Z,4.30
2018-03-20T03:17:46.987Z,5.00
2018-03-20T03:20:17.814Z,5.00
2018-03-20T03:22:47.430Z,6.87
2018-03-20T03:25:17.588Z,5.53
2018-03-20T03:27:55.411Z,6.23
2018-03-20T03:30:25.234Z,6.77
2018-03-20T03:32:55.687Z,8.20
2018-03-20T03:35:25.916Z,5.47
2018-03-20T03:37:57.470Z,5.20
2018-03-20T03:40:27.388Z,6.37
2018-03-20T03:42:59.416Z,7.10
2018-03-20T03:45:29.324Z,8.97
2018-03-20T03:48:03.311Z,6.23
2018-03-20T03:50:33.837Z,8.80
2018-03-20T03:53:07.060Z,6.80
2018-03-20T03:55:37.088Z,6.23
2018-03-20T03:58:11.670Z,10.83
2018-03-20T04:00:42.031Z,7.43
2018-03-20T04:03:13.223Z,6.50
2018-03-20T04:05:43.585Z,6.77
2018-03-20T04:08:15.588Z,7.13
2018-03-20T04:10:46.251Z,7.37
2018-03-20T04:13:17.930Z,6.23
2018-03-20T04:15:47.996Z,5.60
2018-03-20T04:18:19.940Z,7.37
2018-03-20T04:20:50.583Z,7.03
2018-03-20T04:23:22.344Z,7.03
2018-03-20T04:25:53.213Z,7.10
2018-03-20T04:28:24.564Z,5.17
2018-03-20T04:30:54.671Z,5.27
2018-03-20T04:33:26.422Z,5.93
2018-03-20T04:35:56.434Z,6.90
2018-03-20T04:38:29.626Z,5.23
2018-03-20T04:40:59.996Z,7.30
2018-03-20T04:43:31.310Z,7.73
2018-03-20T04:46:01.220Z,4.63
2018-03-20T04:48:33.216Z,6.67
2018-03-20T04:51:04.075Z,7.73
2018-03-20T04:53:37.306Z,5.53
2018-03-20T04:56:07.139Z,9.13
2018-03-20T04:58:38.805Z,7.33
2018-03-20T05:01:09.036Z,4.93
2018-03-20T05:03:42.820Z,6.17
2018-03-20T05:06:12.492Z,8.40
2018-03-20T05:08:45.003Z,8.23
2018-03-20T05:11:14.288Z,6.33
2018-03-20T05:13:51.604Z,8.47
2018-03-20T05:16:21.703Z,9.97
2018-03-20T05:18:51.635Z,5.30
2018-03-20T05:21:21.582Z,6.47
2018-03-20T05:23:56.080Z,7.07
2018-03-20T05:26:26.073Z,8.80
2018-03-20T05:28:58.003Z,9.90
2018-03-20T05:31:28.324Z,6.27
2018-03-20T05:33:59.960Z,8.80
2018-03-20T05:36:29.850Z,7.30
2018-03-20T05:39:02.442Z,8.47
2018-03-20T05:41:32.390Z,9.10
2018-03-20T05:44:05.731Z,7.13
2018-03-20T05:46:36.299Z,7.13
2018-03-20T05:49:08.501Z,6.63
2018-03-20T05:51:38.345Z,7.37
2018-03-20T05:54:12.708Z,7.93
2018-03-20T05:56:42.556Z,6.57
2018-03-20T05:59:13.882Z,6.30
2018-03-20T06:01:43.802Z,7.30
2018-03-20T06:04:17.161Z,8.30
2018-03-20T06:06:47.521Z,8.00
2018-03-20T06:09:18.440Z,8.07
2018-03-20T06:11:48.294Z,6.20
2018-03-20T06:14:21.892Z,7.97
2018-03-20T06:16:51.683Z,6.03
2018-03-20T06:19:22.574Z,6.37
2018-03-20T06:21:53.161Z,7.93
2018-03-20T06:24:26.701Z,5.77
2018-03-20T06:26:57.383Z,7.57
2018-03-20T06:29:27.907Z,6.87
2018-03-20T06:31:57.534Z,14.23
2018-03-20T06:34:30.413Z,10.20
2018-03-20T06:36:59.971Z,6.97
2018-03-20T06:39:32.900Z,7.80
2018-03-20T06:42:02.775Z,8.67
2018-03-20T06:44:34.492Z,9.40
2018-03-20T06:47:04.158Z,5.90
2018-03-20T06:49:36.866Z,7.77
2018-03-20T06:52:06.457Z,11.47
2018-03-20T06:54:39.656Z,9.07
2018-03-20T06:57:09.510Z,11.80
2018-03-20T06:59:42.010Z,9.17
2018-03-20T07:02:11.507Z,11.23
2018-03-20T07:04:44.364Z,13.47
2018-03-20T07:07:14.710Z,11.70
2018-03-20T07:09:47.591Z,11.27
2018-03-20T07:12:17.160Z,9.03
2018-03-20T07:14:50.474Z,11.93
2018-03-20T07:17:21.185Z,9.53
2018-03-20T07:19:52.838Z,16.43
2018-03-20T07:22:22.611Z,11.40
2018-03-20T07:24:55.592Z,9.90
2018-03-20T07:27:25.255Z,8.80
2018-03-20T07:29:58.935Z,8.77
2018-03-20T07:32:28.807Z,9.17
2018-03-20T07:35:01.634Z,9.73
2018-03-20T07:37:31.479Z,12.23
2018-03-20T07:40:05.742Z,10.93
2018-03-20T07:42:35.224Z,18.30
2018-03-20T07:45:08.384Z,11.07
2018-03-20T07:47:38.680Z,8.87
2018-03-20T07:50:11.916Z,13.17
2018-03-20T07:52:41.510Z,14.70
2018-03-20T07:55:15.686Z,13.23
2018-03-20T07:57:46.517Z,13.20
2018-03-20T08:00:16.794Z,12.77
2018-03-20T08:02:46.158Z,12.60
2018-03-20T08:05:20.225Z,15.07
2018-03-20T08:07:49.664Z,15.17
2018-03-20T08:10:22.647Z,17.50
2018-03-20T08:12:53.455Z,16.83
2018-03-20T08:15:23.551Z,20.03
2018-03-20T08:17:53.159Z,22.40
2018-03-20T08:20:26.248Z,18.43
2018-03-20T08:25:27.353Z,19.63
2018-03-20T08:27:56.922Z,22.00
2018-03-20T08:30:30.119Z,22.63
2018-03-20T08:32:59.447Z,22.63
2018-03-20T08:35:33.619Z,17.03
2018-03-20T08:38:03.711Z,21.47
2018-03-20T08:40:35.393Z,20.17
2018-03-20T08:43:05.508Z,21.47
2018-03-20T08:45:37.903Z,23.47
2018-03-20T08:48:07.388Z,16.47
2018-03-20T08:50:40.092Z,24.00
2018-03-20T08:53:09.461Z,24.03
2018-03-20T08:55:46.804Z,19.27
2018-03-20T08:58:17.148Z,24.33
2018-03-20T09:00:46.969Z,18.37
2018-03-20T09:03:17.640Z,19.90
2018-03-20T09:05:50.286Z,19.57
2018-03-20T09:08:19.741Z,23.47
2018-03-20T09:10:52.894Z,16.03
2018-03-20T09:13:22.636Z,19.17
2018-03-20T09:15:55.659Z,17.23
2018-03-20T09:18:25.968Z,25.03
2018-03-20T09:21:03.219Z,23.97
2018-03-20T09:23:32.548Z,18.67
2018-03-20T09:26:02.318Z,17.00
2018-03-20T09:28:31.574Z,19.77
2018-03-20T09:31:05.146Z,17.50
2018-03-20T09:33:34.704Z,18.10
2018-03-20T09:36:11.717Z,20.17
2018-03-20T09:38:41.617Z,16.37
2018-03-20T09:41:12.271Z,18.60
2018-03-20T09:43:41.698Z,15.30
2018-03-20T09:46:13.633Z,16.63
2018-03-20T09:48:43.404Z,15.27
2018-03-20T09:51:16.012Z,14.70
2018-03-20T09:53:45.340Z,18.47
2018-03-20T09:56:18.345Z,19.90
2018-03-20T09:58:48.473Z,15.50
2018-03-20T10:01:25.370Z,17.50
2018-03-20T10:03:54.638Z,17.17
2018-03-20T10:06:23.941Z,14.87
2018-03-20T10:08:53.538Z,13.67
2018-03-20T10:11:25.446Z,14.37
2018-03-20T10:13:55.160Z,14.30
2018-03-20T10:16:27.809Z,16.37
2018-03-20T10:18:58.139Z,16.47
2018-03-20T10:21:29.663Z,13.53
2018-03-20T10:23:59.769Z,13.90
2018-03-20T10:26:32.213Z,14.87
2018-03-20T10:29:01.800Z,8.47
2018-03-20T10:31:35.241Z,12.77
2018-03-20T10:34:04.718Z,10.20
2018-03-20T10:36:37.651Z,10.97
2018-03-20T10:39:07.760Z,6.97
2018-03-20T10:41:41.278Z,6.83
2018-03-20T10:44:10.960Z,9.27
2018-03-20T10:46:42.507Z,9.83
2018-03-20T10:49:11.944Z,12.43
2018-03-20T10:51:45.841Z,5.07
2018-03-20T10:54:15.307Z,10.67
2018-03-20T10:56:48.106Z,6.10
2018-03-20T10:59:19.556Z,6.97
2018-03-20T11:01:55.690Z,4.73
2018-03-20T11:04:25.799Z,10.43
2018-03-20T11:06:55.555Z,8.07
2018-03-20T11:09:24.872Z,3.73
2018-03-20T11:11:57.946Z,5.43
2018-03-20T11:14:29.366Z,3.87
2018-03-20T11:17:00.220Z,5.67
2018-03-20T11:19:30.413Z,3.17
2018-03-20T11:22:09.332Z,4.53
2018-03-20T11:24:38.601Z,4.53
2018-03-20T11:27:07.947Z,5.57
2018-03-20T11:29:37.539Z,4.60
2018-03-20T11:32:10.267Z,4.63
2018-03-20T11:34:39.545Z,3.83
2018-03-20T11:37:13.524Z,4.97
2018-03-20T11:39:42.830Z,2.10
2018-03-20T11:42:15.567Z,3.23
2018-03-20T11:44:45.305Z,3.10
2018-03-20T11:47:18.162Z,3.40
2018-03-20T11:49:47.580Z,2.23
2018-03-20T11:52:20.484Z,2.43
2018-03-20T11:54:49.884Z,5.80
2018-03-20T11:57:21.254Z,1.93
2018-03-20T11:59:50.923Z,4.30
2018-03-20T12:04:54.775Z,4.40
2018-03-20T12:07:25.822Z,3.23
2018-03-20T12:10:02.781Z,4.03
2018-03-20T12:12:32.306Z,5.73
2018-03-20T12:15:01.628Z,5.37
2018-03-20T12:17:31.822Z,3.77
2018-03-20T12:20:01.527Z,1.83
2018-03-20T12:22:34.110Z,3.07
2018-03-20T12:25:03.482Z,5.77
2018-03-20T12:27:36.199Z,4.60
2018-03-20T12:30:05.577Z,3.03
2018-03-20T12:32:38.712Z,3.23
2018-03-20T12:35:10.945Z,1.70
2018-03-20T12:37:40.292Z,3.87
2018-03-20T12:40:09.549Z,1.47
2018-03-20T12:42:42.662Z,2.60
2018-03-20T12:45:11.927Z,3.13
2018-03-20T12:47:45.734Z,2.40
2018-03-20T12:50:15.334Z,2.07
2018-03-20T12:52:48.535Z,2.43
2018-03-20T12:55:17.846Z,2.80
2018-03-20T12:57:49.748Z,2.53
2018-03-20T13:00:19.125Z,1.67
2018-03-20T13:02:53.543Z,2.20
2018-03-20T13:05:23.227Z,4.93
2018-03-20T13:07:55.900Z,1.90
2018-03-20T13:10:25.751Z,1.43
2018-03-20T13:12:59.896Z,0.77
2018-03-20T13:15:29.363Z,1.03
2018-03-20T13:18:02.330Z,0.70
2018-03-20T13:20:32.674Z,1.03
2018-03-20T13:23:04.971Z,2.10
2018-03-20T13:25:34.261Z,1.27
2018-03-20T13:28:07.119Z,0.90
2018-03-20T13:30:37.303Z,2.07
2018-03-20T13:33:10.111Z,1.53
2018-03-20T13:35:40.293Z,2.83
2018-03-20T13:38:17.700Z,0.97
2018-03-20T13:40:46.995Z,1.07
2018-03-20T13:43:17.246Z,0.80
2018-03-20T13:45:47.576Z,1.47
2018-03-20T13:48:17.852Z,2.73
2018-03-20T13:53:22.870Z,2.20
2018-03-20T13:58:28.144Z,2.80
2018-03-20T14:00:57.413Z,4.87
2018-03-20T14:03:26.722Z,1.07
2018-03-20T14:05:56.748Z,1.07
2018-03-20T14:08:26.879Z,1.63
2018-03-20T14:10:56.644Z,1.77
2018-03-20T14:13:29.271Z,2.60
2018-03-20T14:15:58.760Z,1.53
2018-03-20T14:18:31.764Z,1.00
2018-03-20T14:21:01.105Z,2.13
2018-03-20T14:23:34.441Z,1.63
2018-03-20T14:26:10.838Z,3.37
2018-03-20T14:28:41.224Z,1.13
2018-03-20T14:31:10.540Z,1.93
2018-03-20T14:33:39.829Z,1.50
2018-03-20T14:36:09.096Z,3.17
2018-03-20T14:38:41.830Z,2.47
2018-03-20T14:41:11.525Z,2.60
2018-03-20T14:43:48.451Z,1.80
2018-03-20T14:46:18.671Z,2.37
2018-03-20T14:48:49.063Z,1.57
2018-03-20T14:51:18.411Z,2.60
2018-03-20T14:53:51.205Z,1.93
2018-03-20T14:56:21.106Z,2.30
2018-03-20T14:58:58.112Z,2.87
2018-03-20T15:01:27.628Z,1.10
2018-03-20T15:03:58.727Z,2.23
2018-03-20T15:06:28.810Z,1.27
2018-03-20T15:09:00.419Z,1.30
2018-03-20T15:11:29.873Z,1.33
2018-03-20T15:14:06.249Z,1.70
2018-03-20T15:16:36.513Z,0.80
2018-03-20T15:19:07.652Z,3.30
2018-03-20T15:21:36.878Z,0.90
2018-03-20T15:24:14.387Z,0.80
2018-03-20T15:26:43.675Z,0.80
2018-03-20T15:29:14.908Z,1.17
2018-03-20T15:31:44.669Z,1.80
2018-03-20T15:34:17.736Z,0.97
2018-03-20T15:36:47.251Z,4.33
2018-03-20T15:39:19.607Z,4.63
2018-03-20T15:41:49.254Z,0.60
2018-03-20T15:44:22.390Z,1.90
2018-03-20T15:46:51.852Z,1.47
2018-03-20T15:49:24.565Z,3.33
2018-03-20T15:51:54.004Z,0.83
2018-03-20T15:54:27.073Z,2.10
2018-03-20T15:56:57.629Z,2.97
2018-03-20T15:59:29.239Z,1.07
2018-03-20T16:01:58.500Z,0.67
2018-03-20T16:04:35.622Z,2.30
2018-03-20T16:07:04.971Z,1.77
2018-03-20T16:09:35.245Z,1.67
2018-03-20T16:14:42.693Z,1.40
2018-03-20T16:17:12.829Z,1.57
2018-03-20T16:19:42.117Z,0.87
2018-03-20T16:22:12.692Z,1.90
2018-03-20T16:24:41.980Z,1.33
2018-03-20T16:27:11.948Z,1.60
2018-03-20T16:29:45.616Z,1.43
2018-03-20T16:32:14.812Z,4.00
2018-03-20T16:34:45.851Z,1.93
2018-03-20T16:37:15.830Z,1.20
2018-03-20T16:39:48.217Z,2.10
2018-03-20T16:42:17.634Z,1.37
2018-03-20T16:44:51.014Z,2.77
2018-03-20T16:47:21.425Z,0.80
2018-03-20T16:49:58.162Z,1.60
2018-03-20T16:52:28.252Z,1.03
2018-03-20T16:54:57.538Z,1.00
2018-03-20T16:57:27.146Z,0.60
2018-03-20T17:00:00.118Z,0.97
2018-03-20T17:02:29.539Z,1.30
2018-03-20T17:05:06.942Z,0.70
2018-03-20T17:07:36.193Z,2.10
2018-03-20T17:10:06.424Z,3.13
2018-03-20T17:12:35.772Z,1.17
2018-03-20T17:15:12.407Z,0.90
2018-03-20T17:17:41.913Z,1.63
2018-03-20T17:20:12.272Z,1.73
2018-03-20T17:22:41.851Z,2.37
2018-03-20T17:25:15.569Z,5.23
2018-03-20T17:27:44.933Z,1.57
2018-03-20T17:30:17.828Z,1.23
2018-03-20T17:32:48.151Z,1.27
2018-03-20T17:35:20.877Z,3.17
2018-03-20T17:37:50.975Z,1.70
2018-03-20T17:40:22.426Z,0.70
2018-03-20T17:42:51.768Z,1.07
2018-03-20T17:45:33.950Z,2.90
2018-03-20T17:48:04.542Z,3.67
2018-03-20T17:50:34.142Z,1.27
2018-03-20T17:53:03.977Z,3.23
2018-03-20T17:55:33.592Z,3.33
2018-03-20T17:58:03.774Z,5.33
2018-03-20T18:00:34.187Z,3.33
2018-03-20T18:03:03.851Z,3.00
2018-03-20T18:05:35.675Z,2.47
2018-03-20T18:08:05.019Z,3.30
2018-03-20T18:10:36.379Z,1.97
2018-03-20T18:13:05.565Z,3.17
2018-03-20T18:15:38.373Z,2.47
2018-03-20T18:18:07.917Z,2.50
2018-03-20T18:20:41.138Z,1.70
2018-03-20T18:23:11.046Z,1.83
2018-03-20T18:25:45.451Z,1.13
2018-03-20T18:28:18.038Z,3.58
2018-03-20T18:30:47.255Z,2.27
2018-03-20T18:33:19.005Z,1.63
2018-03-20T18:35:49.408Z,3.07
2018-03-20T18:38:18.877Z,3.37
2018-03-20T18:40:52.146Z,4.77
2018-03-20T18:43:21.516Z,18.93
2018-03-20T18:45:58.060Z,2.30
2018-03-20T18:48:28.079Z,1.83
2018-03-20T18:50:58.166Z,0.97
2018-03-20T18:53:27.388Z,2.60
2018-03-20T18:56:00.943Z,4.33
2018-03-20T18:58:30.172Z,2.13
2018-03-20T19:01:04.156Z,1.77
2018-03-20T19:03:33.952Z,1.77
2018-03-20T19:06:07.611Z,2.20
2018-03-20T19:08:37.926Z,5.10
2018-03-20T19:11:10.638Z,2.80
2018-03-20T19:13:39.895Z,1.70
2018-03-20T19:16:13.239Z,2.23
2018-03-20T19:18:42.524Z,2.00
2018-03-20T19:21:15.243Z,1.87
2018-03-20T19:23:45.972Z,3.57
2018-03-20T19:26:17.817Z,6.07
2018-03-20T19:28:50.391Z,2.57
2018-03-20T19:31:22.735Z,1.00
2018-03-20T19:33:52.619Z,2.43
2018-03-20T19:36:22.739Z,1.93
2018-03-20T19:38:52.372Z,1.00
2018-03-20T19:41:25.465Z,4.33
2018-03-20T19:43:54.859Z,1.57
2018-03-20T19:46:31.827Z,4.03
2018-03-20T19:49:01.081Z,1.17
2018-03-20T19:51:30.823Z,0.90
2018-03-20T19:54:01.209Z,2.67
2018-03-20T19:56:31.450Z,1.63
2018-03-20T19:59:00.649Z,1.90
2018-03-20T20:01:33.298Z,1.60
2018-03-20T20:04:02.892Z,1.47
2018-03-20T20:06:39.397Z,4.73
2018-03-20T20:09:09.446Z,3.43
2018-03-20T20:11:38.795Z,1.67
2018-03-20T20:14:08.061Z,3.20
2018-03-20T20:16:40.686Z,1.60
2018-03-20T20:19:10.063Z,1.83
2018-03-20T20:21:43.317Z,5.03
2018-03-20T20:24:13.157Z,3.13
2018-03-20T20:26:49.976Z,1.90
2018-03-20T20:29:19.348Z,2.87
2018-03-20T20:31:49.105Z,2.73
2018-03-20T20:34:18.325Z,2.17
2018-03-20T20:36:55.749Z,1.20
2018-03-20T20:39:25.062Z,1.30
2018-03-20T20:41:54.466Z,3.17
2018-03-20T20:44:23.717Z,1.73
2018-03-20T20:46:59.312Z,2.77
2018-03-20T20:49:28.999Z,0.80
2018-03-20T20:52:02.355Z,1.03
2018-03-20T20:54:31.619Z,0.77
2018-03-20T20:57:09.194Z,1.67
2018-03-20T20:59:38.542Z,4.63
2018-03-20T21:02:09.041Z,2.37
2018-03-20T21:04:39.395Z,3.00
2018-03-20T21:07:15.871Z,3.67
2018-03-20T21:09:45.478Z,2.47
2018-03-20T21:12:16.731Z,3.33
2018-03-20T21:14:46.097Z,1.73
2018-03-20T21:17:18.880Z,3.47
2018-03-20T21:19:51.759Z,1.27
2018-03-20T21:22:21.118Z,2.87
2018-03-20T21:24:50.524Z,0.93
2018-03-20T21:27:23.281Z,5.50
2018-03-20T21:29:53.314Z,4.20
2018-03-20T21:32:24.719Z,3.80
2018-03-20T21:34:54.326Z,3.43
2018-03-20T21:37:28.138Z,4.17
2018-03-20T21:39:57.497Z,3.97
2018-03-20T21:42:31.686Z,2.70
2018-03-20T21:45:01.850Z,1.80
2018-03-20T21:47:33.175Z,3.43
2018-03-20T21:50:02.528Z,0.90
2018-03-20T21:52:37.095Z,2.13
2018-03-20T21:55:06.784Z,1.17
2018-03-20T21:57:40.343Z,2.33
2018-03-20T22:00:09.552Z,1.93
2018-03-20T22:02:46.484Z,1.33
2018-03-20T22:05:16.020Z,1.73
2018-03-20T22:07:47.221Z,2.53
2018-03-20T22:10:16.834Z,3.80
2018-03-20T22:12:50.280Z,3.97
2018-03-20T22:15:19.511Z,3.33
2018-03-20T22:17:53.196Z,2.40
2018-03-20T22:20:22.744Z,3.60
2018-03-20T22:22:55.819Z,2.67
2018-03-20T22:25:25.281Z,1.47
2018-03-20T22:27:58.503Z,1.40
2018-03-20T22:30:27.909Z,3.53
2018-03-20T22:33:04.896Z,2.50
2018-03-20T22:35:34.386Z,1.10
2018-03-20T22:38:04.851Z,2.70
2018-03-20T22:40:34.254Z,1.00
2018-03-20T22:43:07.613Z,2.10
2018-03-20T22:45:37.147Z,2.80
2018-03-20T22:48:13.687Z,2.40
2018-03-20T22:50:43.290Z,0.80
2018-03-20T22:53:16.121Z,1.40
2018-03-20T22:55:45.574Z,2.20
2018-03-20T22:58:18.905Z,1.27
2018-03-20T23:00:49.386Z,8.03
2018-03-20T23:03:19.662Z,1.87
2018-03-20T23:05:49.936Z,2.00
2018-03-20T23:08:25.447Z,3.40
2018-03-20T23:10:56.327Z,3.80
2018-03-20T23:13:26.367Z,4.27
2018-03-20T23:15:55.851Z,1.77
2018-03-20T23:18:26.317Z,2.00
2018-03-20T23:20:55.805Z,2.10
2018-03-20T23:26:02.403Z,2.00
2018-03-20T23:28:32.218Z,2.87
2018-03-20T23:31:02.212Z,5.47
2018-03-20T23:33:35.354Z,1.13
2018-03-20T23:36:05.589Z,2.80
2018-03-20T23:38:38.355Z,3.53
2018-03-20T23:41:07.877Z,2.87
2018-03-20T23:43:39.406Z,1.83
2018-03-20T23:46:09.294Z,3.13
2018-03-20T23:48:43.482Z,2.40
2018-03-20T23:51:13.095Z,3.20
2018-03-20T23:53:45.576Z,1.00
2018-03-20T23:56:15.228Z,1.07
2018-03-20T23:58:48.054Z,1.47
